sensor_id;sensor_type;location;lat;lon;timestamp;temperature;humidity
25504;DHT22;13410;52.114;5.718;2024-03-23T00:54:22;12.90;99.90
25504;DHT22;13410;52.114;5.718;2024-03-23T00:56:48;12.80;99.90
25504;DHT22;13410;52.114;5.718;2024-03-23T00:59:14;12.80;99.90
25504;DHT22;13410;52.114;5.718;2024-03-23T01:01:40;12.80;99.90
25504;DHT22;13410;52.114;5.718;2024-03-23T01:04:06;12.80;99.90
25504;DHT22;13410;52.114;5.718;2024-03-23T01:06:32;12.70;99.90
25504;DHT22;13410;52.114;5.718;2024-03-23T01:08:57;12.70;99.90
25504;DHT22;13410;52.114;5.718;2024-03-23T01:11:23;12.50;99.90
25504;DHT22;13410;52.114;5.718;2024-03-23T01:13:49;12.60;99.90
25504;DHT22;13410;52.114;5.718;2024-03-23T01:16:14;12.60;99.90
25504;DHT22;13410;52.114;5.718;2024-03-23T01:18:40;12.50;99.90
25504;DHT22;13410;52.114;5.718;2024-03-23T01:21:06;12.30;99.90
25504;DHT22;13410;52.114;5.718;2024-03-23T01:23:31;12.30;99.90
25504;DHT22;13410;52.114;5.718;2024-03-23T01:25:57;12.30;99.90
25504;DHT22;13410;52.114;5.718;2024-03-23T01:28:22;12.40;99.90
25504;DHT22;13410;52.114;5.718;2024-03-23T01:30:49;12.40;99.90
25504;DHT22;13410;52.114;5.718;2024-03-23T01:33:16;12.50;99.90
25504;DHT22;13410;52.114;5.718;2024-03-23T01:35:42;12.40;99.90
25504;DHT22;13410;52.114;5.718;2024-03-23T01:38:08;12.30;99.90
25504;DHT22;13410;52.114;5.718;2024-03-23T01:40:35;12.40;99.90
25504;DHT22;13410;52.114;5.718;2024-03-23T01:43:10;12.20;99.90
25504;DHT22;13410;52.114;5.718;2024-03-23T01:45:36;12.30;99.90
25504;DHT22;13410;52.114;5.718;2024-03-23T01:48:02;12.30;99.90
25504;DHT22;13410;52.114;5.718;2024-03-23T01:50:28;12.30;99.90
25504;DHT22;13410;52.114;5.718;2024-03-23T01:52:59;12.30;99.90
25504;DHT22;13410;52.114;5.718;2024-03-23T01:55:26;12.30;99.90
25504;DHT22;13410;52.114;5.718;2024-03-23T01:57:53;12.20;99.90
25504;DHT22;13410;52.114;5.718;2024-03-23T02:00:18;12.20;99.90
25504;DHT22;13410;52.114;5.718;2024-03-23T02:02:45;12.40;99.90
25504;DHT22;13410;52.114;5.718;2024-03-23T02:05:11;12.40;99.90
25504;DHT22;13410;52.114;5.718;2024-03-23T02:07:41;12.30;99.90
25504;DHT22;13410;52.114;5.718;2024-03-23T02:10:11;12.30;99.90
25504;DHT22;13410;52.114;5.718;2024-03-23T02:12:40;12.30;99.90
25504;DHT22;13410;52.114;5.718;2024-03-23T02:15:07;12.30;99.90
25504;DHT22;13410;52.114;5.718;2024-03-23T02:17:35;12.40;99.90
25504;DHT22;13410;52.114;5.718;2024-03-23T02:20:02;12.20;99.90
25504;DHT22;13410;52.114;5.718;2024-03-23T02:22:38;12.20;99.90
25504;DHT22;13410;52.114;5.718;2024-03-23T02:25:05;12.30;99.90
25504;DHT22;13410;52.114;5.718;2024-03-23T02:27:31;12.10;99.90
25504;DHT22;13410;52.114;5.718;2024-03-23T02:30:02;12.00;99.90
25504;DHT22;13410;52.114;5.718;2024-03-23T02:32:27;11.90;99.90
25504;DHT22;13410;52.114;5.718;2024-03-23T02:34:53;11.90;99.90
25504;DHT22;13410;52.114;5.718;2024-03-23T02:37:19;11.80;99.90
25504;DHT22;13410;52.114;5.718;2024-03-23T02:39:44;11.90;99.90
25504;DHT22;13410;52.114;5.718;2024-03-23T02:42:10;11.90;99.90
25504;DHT22;13410;52.114;5.718;2024-03-23T02:44:36;11.70;99.90
25504;DHT22;13410;52.114;5.718;2024-03-23T02:47:01;11.70;99.90
25504;DHT22;13410;52.114;5.718;2024-03-23T02:49:27;11.60;99.90
25504;DHT22;13410;52.114;5.718;2024-03-23T02:51:53;11.60;99.90
25504;DHT22;13410;52.114;5.718;2024-03-23T02:54:19;11.70;99.90
25504;DHT22;13410;52.114;5.718;2024-03-23T02:56:44;11.60;99.90
25504;DHT22;13410;52.114;5.718;2024-03-23T02:59:10;11.60;99.90
25504;DHT22;13410;52.114;5.718;2024-03-23T03:01:36;11.50;99.90
25504;DHT22;13410;52.114;5.718;2024-03-23T03:04:01;11.40;99.90
25504;DHT22;13410;52.114;5.718;2024-03-23T03:06:30;11.50;99.90
25504;DHT22;13410;52.114;5.718;2024-03-23T03:08:57;11.40;99.90
25504;DHT22;13410;52.114;5.718;2024-03-23T03:11:23;11.30;99.90
25504;DHT22;13410;52.114;5.718;2024-03-23T03:13:49;11.30;99.90
25504;DHT22;13410;52.114;5.718;2024-03-23T03:16:14;11.30;99.90
25504;DHT22;13410;52.114;5.718;2024-03-23T03:18:40;11.30;99.90
25504;DHT22;13410;52.114;5.718;2024-03-23T03:21:06;11.30;99.90
25504;DHT22;13410;52.114;5.718;2024-03-23T03:23:36;11.30;99.90
25504;DHT22;13410;52.114;5.718;2024-03-23T03:26:03;11.20;99.90
25504;DHT22;13410;52.114;5.718;2024-03-23T03:28:28;11.10;99.90
25504;DHT22;13410;52.114;5.718;2024-03-23T03:30:56;11.20;99.90
25504;DHT22;13410;52.114;5.718;2024-03-23T03:33:22;11.10;99.90
25504;DHT22;13410;52.114;5.718;2024-03-23T03:35:48;11.00;99.90
25504;DHT22;13410;52.114;5.718;2024-03-23T03:38:18;11.00;99.90
25504;DHT22;13410;52.114;5.718;2024-03-23T03:40:43;11.00;99.90
25504;DHT22;13410;52.114;5.718;2024-03-23T03:43:09;11.00;99.90
25504;DHT22;13410;52.114;5.718;2024-03-23T03:45:35;11.00;99.90
25504;DHT22;13410;52.114;5.718;2024-03-23T03:48:00;10.90;99.90
25504;DHT22;13410;52.114;5.718;2024-03-23T03:50:26;10.90;99.90
25504;DHT22;13410;52.114;5.718;2024-03-23T03:52:51;11.00;99.90
25504;DHT22;13410;52.114;5.718;2024-03-23T03:55:17;10.90;99.90
25504;DHT22;13410;52.114;5.718;2024-03-23T03:57:43;10.90;99.90
25504;DHT22;13410;52.114;5.718;2024-03-23T04:00:09;10.90;99.90
25504;DHT22;13410;52.114;5.718;2024-03-23T04:02:38;10.80;99.90
25504;DHT22;13410;52.114;5.718;2024-03-23T04:05:04;10.80;99.90
25504;DHT22;13410;52.114;5.718;2024-03-23T04:07:30;10.80;99.90
25504;DHT22;13410;52.114;5.718;2024-03-23T04:09:55;10.70;99.90
25504;DHT22;13410;52.114;5.718;2024-03-23T04:12:21;10.70;99.90
25504;DHT22;13410;52.114;5.718;2024-03-23T04:14:47;10.60;99.90
25504;DHT22;13410;52.114;5.718;2024-03-23T04:17:12;10.80;99.90
25504;DHT22;13410;52.114;5.718;2024-03-23T04:19:38;10.70;99.90
25504;DHT22;13410;52.114;5.718;2024-03-23T04:22:04;10.60;99.90
25504;DHT22;13410;52.114;5.718;2024-03-23T04:24:30;10.60;99.90
25504;DHT22;13410;52.114;5.718;2024-03-23T04:26:56;10.60;99.90
25504;DHT22;13410;52.114;5.718;2024-03-23T04:29:21;10.60;99.90
25504;DHT22;13410;52.114;5.718;2024-03-23T04:31:47;10.60;99.90
25504;DHT22;13410;52.114;5.718;2024-03-23T04:34:13;10.60;99.90
25504;DHT22;13410;52.114;5.718;2024-03-23T04:36:39;10.60;99.90
25504;DHT22;13410;52.114;5.718;2024-03-23T04:39:05;10.60;99.90
25504;DHT22;13410;52.114;5.718;2024-03-23T04:41:34;10.50;99.90
25504;DHT22;13410;52.114;5.718;2024-03-23T04:44:00;10.50;99.90
25504;DHT22;13410;52.114;5.718;2024-03-23T04:46:26;10.60;99.90
25504;DHT22;13410;52.114;5.718;2024-03-23T04:48:51;10.60;99.90
25504;DHT22;13410;52.114;5.718;2024-03-23T04:51:23;10.50;99.90
25504;DHT22;13410;52.114;5.718;2024-03-23T04:53:49;10.50;99.90
25504;DHT22;13410;52.114;5.718;2024-03-23T04:56:16;10.60;99.90
25504;DHT22;13410;52.114;5.718;2024-03-23T04:58:42;10.50;99.90
25504;DHT22;13410;52.114;5.718;2024-03-23T05:01:08;10.50;99.90
25504;DHT22;13410;52.114;5.718;2024-03-23T05:03:34;10.40;99.90
25504;DHT22;13410;52.114;5.718;2024-03-23T05:05:59;10.50;99.90
25504;DHT22;13410;52.114;5.718;2024-03-23T05:08:26;10.40;99.90
25504;DHT22;13410;52.114;5.718;2024-03-23T05:10:51;10.40;99.90
25504;DHT22;13410;52.114;5.718;2024-03-23T05:13:17;10.40;99.90
25504;DHT22;13410;52.114;5.718;2024-03-23T05:15:43;10.50;99.90
25504;DHT22;13410;52.114;5.718;2024-03-23T05:18:09;10.40;99.90
25504;DHT22;13410;52.114;5.718;2024-03-23T05:20:35;10.50;99.90
25504;DHT22;13410;52.114;5.718;2024-03-23T05:23:01;10.50;99.90
25504;DHT22;13410;52.114;5.718;2024-03-23T05:25:27;10.40;99.90
25504;DHT22;13410;52.114;5.718;2024-03-23T05:27:52;10.20;99.90
25504;DHT22;13410;52.114;5.718;2024-03-23T05:30:18;10.20;99.90
25504;DHT22;13410;52.114;5.718;2024-03-23T05:32:43;10.10;99.90
25504;DHT22;13410;52.114;5.718;2024-03-23T05:35:10;10.20;99.90
25504;DHT22;13410;52.114;5.718;2024-03-23T05:37:35;10.20;99.90
25504;DHT22;13410;52.114;5.718;2024-03-23T05:40:02;10.00;99.90
25504;DHT22;13410;52.114;5.718;2024-03-23T05:42:29;10.00;99.90
25504;DHT22;13410;52.114;5.718;2024-03-23T05:44:55;10.00;99.90
25504;DHT22;13410;52.114;5.718;2024-03-23T05:47:20;9.90;99.90
25504;DHT22;13410;52.114;5.718;2024-03-23T05:49:46;9.90;99.90
25504;DHT22;13410;52.114;5.718;2024-03-23T05:52:12;9.90;99.90
25504;DHT22;13410;52.114;5.718;2024-03-23T05:54:38;10.00;99.90
25504;DHT22;13410;52.114;5.718;2024-03-23T05:57:04;10.00;99.90
25504;DHT22;13410;52.114;5.718;2024-03-23T05:59:30;9.90;99.90
25504;DHT22;13410;52.114;5.718;2024-03-23T06:01:56;9.90;99.90
25504;DHT22;13410;52.114;5.718;2024-03-23T06:04:22;10.00;99.90
25504;DHT22;13410;52.114;5.718;2024-03-23T06:06:48;9.90;99.90
25504;DHT22;13410;52.114;5.718;2024-03-23T06:09:13;10.10;99.90
25504;DHT22;13410;52.114;5.718;2024-03-23T06:11:39;10.20;99.90
25504;DHT22;13410;52.114;5.718;2024-03-23T06:14:05;10.20;99.90
25504;DHT22;13410;52.114;5.718;2024-03-23T06:16:31;10.30;99.90
25504;DHT22;13410;52.114;5.718;2024-03-23T06:18:56;10.50;99.90
25504;DHT22;13410;52.114;5.718;2024-03-23T06:21:23;10.50;99.90
25504;DHT22;13410;52.114;5.718;2024-03-23T06:23:53;10.60;99.90
25504;DHT22;13410;52.114;5.718;2024-03-23T06:26:19;10.70;99.90
25504;DHT22;13410;52.114;5.718;2024-03-23T06:28:46;10.30;99.90
25504;DHT22;13410;52.114;5.718;2024-03-23T06:31:12;10.50;99.90
25504;DHT22;13410;52.114;5.718;2024-03-23T06:33:39;10.60;99.90
25504;DHT22;13410;52.114;5.718;2024-03-23T06:36:07;10.80;99.90
25504;DHT22;13410;52.114;5.718;2024-03-23T06:38:34;10.70;99.90
25504;DHT22;13410;52.114;5.718;2024-03-23T06:41:02;10.70;99.90
25504;DHT22;13410;52.114;5.718;2024-03-23T06:43:27;10.80;99.90
25504;DHT22;13410;52.114;5.718;2024-03-23T06:45:53;10.80;99.90
25504;DHT22;13410;52.114;5.718;2024-03-23T06:48:19;10.90;99.90
25504;DHT22;13410;52.114;5.718;2024-03-23T06:50:46;10.90;99.90
25504;DHT22;13410;52.114;5.718;2024-03-23T06:53:12;10.90;99.90
25504;DHT22;13410;52.114;5.718;2024-03-23T06:55:38;11.00;99.90
25504;DHT22;13410;52.114;5.718;2024-03-23T06:58:04;10.90;99.90
25504;DHT22;13410;52.114;5.718;2024-03-23T07:00:31;11.00;99.90
25504;DHT22;13410;52.114;5.718;2024-03-23T07:02:59;11.10;99.90
25504;DHT22;13410;52.114;5.718;2024-03-23T07:05:25;11.00;99.90
25504;DHT22;13410;52.114;5.718;2024-03-23T07:07:51;11.00;99.90
25504;DHT22;13410;52.114;5.718;2024-03-23T07:10:16;11.20;99.90
25504;DHT22;13410;52.114;5.718;2024-03-23T07:12:44;11.20;99.90
25504;DHT22;13410;52.114;5.718;2024-03-23T07:15:09;11.30;99.90
25504;DHT22;13410;52.114;5.718;2024-03-23T07:17:35;11.50;99.90
25504;DHT22;13410;52.114;5.718;2024-03-23T07:20:02;11.70;99.90
25504;DHT22;13410;52.114;5.718;2024-03-23T07:22:30;11.90;99.90
25504;DHT22;13410;52.114;5.718;2024-03-23T07:24:55;11.90;99.90
25504;DHT22;13410;52.114;5.718;2024-03-23T07:27:21;12.10;99.90
25504;DHT22;13410;52.114;5.718;2024-03-23T07:29:46;12.10;99.90
25504;DHT22;13410;52.114;5.718;2024-03-23T07:32:12;12.20;99.90
25504;DHT22;13410;52.114;5.718;2024-03-23T07:34:38;12.50;99.90
25504;DHT22;13410;52.114;5.718;2024-03-23T07:37:03;12.80;99.90
25504;DHT22;13410;52.114;5.718;2024-03-23T07:39:29;13.20;99.90
25504;DHT22;13410;52.114;5.718;2024-03-23T07:41:54;13.30;99.90
25504;DHT22;13410;52.114;5.718;2024-03-23T07:44:20;13.40;99.90
25504;DHT22;13410;52.114;5.718;2024-03-23T07:46:47;13.40;99.90
25504;DHT22;13410;52.114;5.718;2024-03-23T07:49:12;13.20;99.90
25504;DHT22;13410;52.114;5.718;2024-03-23T07:51:38;13.20;99.90
25504;DHT22;13410;52.114;5.718;2024-03-23T07:54:05;13.10;99.90
25504;DHT22;13410;52.114;5.718;2024-03-23T07:56:34;13.10;99.90
25504;DHT22;13410;52.114;5.718;2024-03-23T07:58:59;13.10;99.90
25504;DHT22;13410;52.114;5.718;2024-03-23T08:01:25;13.20;99.90
25504;DHT22;13410;52.114;5.718;2024-03-23T08:03:51;13.00;99.90
25504;DHT22;13410;52.114;5.718;2024-03-23T08:06:18;12.90;99.90
25504;DHT22;13410;52.114;5.718;2024-03-23T08:08:46;12.50;99.90
25504;DHT22;13410;52.114;5.718;2024-03-23T08:11:12;12.60;99.90
25504;DHT22;13410;52.114;5.718;2024-03-23T08:13:40;12.60;99.90
25504;DHT22;13410;52.114;5.718;2024-03-23T08:16:06;12.70;99.90
25504;DHT22;13410;52.114;5.718;2024-03-23T08:18:34;12.70;99.90
25504;DHT22;13410;52.114;5.718;2024-03-23T08:21:01;12.80;99.90
25504;DHT22;13410;52.114;5.718;2024-03-23T08:23:33;12.80;99.90
25504;DHT22;13410;52.114;5.718;2024-03-23T08:26:00;12.70;99.90
25504;DHT22;13410;52.114;5.718;2024-03-23T08:28:26;12.60;99.90
25504;DHT22;13410;52.114;5.718;2024-03-23T08:30:53;12.50;99.90
25504;DHT22;13410;52.114;5.718;2024-03-23T08:33:19;12.50;99.90
25504;DHT22;13410;52.114;5.718;2024-03-23T08:35:59;12.40;99.90
25504;DHT22;13410;52.114;5.718;2024-03-23T08:38:26;12.30;99.90
25504;DHT22;13410;52.114;5.718;2024-03-23T08:41:12;12.50;99.90
25504;DHT22;13410;52.114;5.718;2024-03-23T08:43:41;12.80;99.90
25504;DHT22;13410;52.114;5.718;2024-03-23T08:46:10;12.60;99.90
25504;DHT22;13410;52.114;5.718;2024-03-23T08:48:54;12.70;99.90
25504;DHT22;13410;52.114;5.718;2024-03-23T08:51:20;12.80;99.90
25504;DHT22;13410;52.114;5.718;2024-03-23T08:53:45;12.70;99.90
25504;DHT22;13410;52.114;5.718;2024-03-23T08:56:11;12.70;99.90
25504;DHT22;13410;52.114;5.718;2024-03-23T08:58:38;13.00;99.90
25504;DHT22;13410;52.114;5.718;2024-03-23T09:01:08;13.20;99.90
25504;DHT22;13410;52.114;5.718;2024-03-23T09:03:34;13.00;99.90
25504;DHT22;13410;52.114;5.718;2024-03-23T09:06:01;13.00;99.90
25504;DHT22;13410;52.114;5.718;2024-03-23T09:08:28;13.30;99.90
25504;DHT22;13410;52.114;5.718;2024-03-23T09:10:54;13.30;99.90
25504;DHT22;13410;52.114;5.718;2024-03-23T09:13:20;13.30;99.90
25504;DHT22;13410;52.114;5.718;2024-03-23T09:15:49;13.50;99.90
25504;DHT22;13410;52.114;5.718;2024-03-23T09:18:16;13.20;99.90
25504;DHT22;13410;52.114;5.718;2024-03-23T09:20:42;13.20;99.90
25504;DHT22;13410;52.114;5.718;2024-03-23T09:23:08;13.50;99.90
25504;DHT22;13410;52.114;5.718;2024-03-23T09:25:37;13.60;99.90
25504;DHT22;13410;52.114;5.718;2024-03-23T09:28:04;13.60;99.90
25504;DHT22;13410;52.114;5.718;2024-03-23T09:30:30;13.60;99.90
25504;DHT22;13410;52.114;5.718;2024-03-23T09:32:55;13.80;99.90
25504;DHT22;13410;52.114;5.718;2024-03-23T09:35:21;14.10;99.90
25504;DHT22;13410;52.114;5.718;2024-03-23T09:37:49;14.30;99.90
25504;DHT22;13410;52.114;5.718;2024-03-23T09:40:15;14.30;99.90
25504;DHT22;13410;52.114;5.718;2024-03-23T09:42:41;14.00;99.90
25504;DHT22;13410;52.114;5.718;2024-03-23T09:45:26;13.40;99.90
25504;DHT22;13410;52.114;5.718;2024-03-23T09:47:53;13.10;99.90
25504;DHT22;13410;52.114;5.718;2024-03-23T09:50:19;13.00;99.90
25504;DHT22;13410;52.114;5.718;2024-03-23T09:52:48;12.70;99.90
25504;DHT22;13410;52.114;5.718;2024-03-23T09:55:14;12.30;99.90
25504;DHT22;13410;52.114;5.718;2024-03-23T09:57:41;11.60;99.90
25504;DHT22;13410;52.114;5.718;2024-03-23T10:00:07;11.40;99.90
25504;DHT22;13410;52.114;5.718;2024-03-23T10:02:35;11.60;99.90
25504;DHT22;13410;52.114;5.718;2024-03-23T10:05:01;11.60;99.90
25504;DHT22;13410;52.114;5.718;2024-03-23T10:07:27;11.90;99.90
25504;DHT22;13410;52.114;5.718;2024-03-23T10:09:56;12.00;99.90
25504;DHT22;13410;52.114;5.718;2024-03-23T10:12:24;11.90;99.90
25504;DHT22;13410;52.114;5.718;2024-03-23T10:14:50;11.80;99.90
25504;DHT22;13410;52.114;5.718;2024-03-23T10:17:21;11.70;99.90
25504;DHT22;13410;52.114;5.718;2024-03-23T10:19:52;11.50;99.90
25504;DHT22;13410;52.114;5.718;2024-03-23T10:22:23;11.50;99.90
25504;DHT22;13410;52.114;5.718;2024-03-23T10:24:48;11.90;99.90
25504;DHT22;13410;52.114;5.718;2024-03-23T10:27:21;12.30;99.90
25504;DHT22;13410;52.114;5.718;2024-03-23T10:29:49;12.70;99.90
25504;DHT22;13410;52.114;5.718;2024-03-23T10:32:16;13.10;99.90
25504;DHT22;13410;52.114;5.718;2024-03-23T10:34:43;13.00;99.90
25504;DHT22;13410;52.114;5.718;2024-03-23T10:37:09;12.90;99.90
25504;DHT22;13410;52.114;5.718;2024-03-23T10:39:41;12.70;99.90
25504;DHT22;13410;52.114;5.718;2024-03-23T10:42:08;12.90;99.90
25504;DHT22;13410;52.114;5.718;2024-03-23T10:44:35;13.40;99.90
25504;DHT22;13410;52.114;5.718;2024-03-23T10:47:02;13.60;99.90
25504;DHT22;13410;52.114;5.718;2024-03-23T10:49:35;14.00;99.90
25504;DHT22;13410;52.114;5.718;2024-03-23T10:52:05;13.70;99.90
25504;DHT22;13410;52.114;5.718;2024-03-23T10:54:32;13.40;99.90
25504;DHT22;13410;52.114;5.718;2024-03-23T10:57:11;13.50;99.90
25504;DHT22;13410;52.114;5.718;2024-03-23T10:59:39;13.50;99.90
25504;DHT22;13410;52.114;5.718;2024-03-23T11:02:05;13.50;99.90
25504;DHT22;13410;52.114;5.718;2024-03-23T11:04:37;13.40;99.90
25504;DHT22;13410;52.114;5.718;2024-03-23T11:09:52;13.90;99.90
25504;DHT22;13410;52.114;5.718;2024-03-23T11:14:48;13.60;99.90
25504;DHT22;13410;52.114;5.718;2024-03-23T11:17:21;13.10;99.90
25504;DHT22;13410;52.114;5.718;2024-03-23T11:19:54;12.70;99.90
25504;DHT22;13410;52.114;5.718;2024-03-23T11:22:44;12.50;99.90
25504;DHT22;13410;52.114;5.718;2024-03-23T11:25:25;12.50;99.90
25504;DHT22;13410;52.114;5.718;2024-03-23T11:27:52;12.60;99.90
25504;DHT22;13410;52.114;5.718;2024-03-23T11:30:27;12.50;99.90
25504;DHT22;13410;52.114;5.718;2024-03-23T11:32:57;12.50;99.90
25504;DHT22;13410;52.114;5.718;2024-03-23T11:35:30;12.50;99.90
25504;DHT22;13410;52.114;5.718;2024-03-23T11:38:16;12.60;99.90
25504;DHT22;13410;52.114;5.718;2024-03-23T11:40:47;12.90;99.90
25504;DHT22;13410;52.114;5.718;2024-03-23T11:43:20;13.10;99.90
25504;DHT22;13410;52.114;5.718;2024-03-23T11:45:48;13.20;99.90
25504;DHT22;13410;52.114;5.718;2024-03-23T11:48:19;13.60;99.90
25504;DHT22;13410;52.114;5.718;2024-03-23T11:50:49;13.50;99.90
25504;DHT22;13410;52.114;5.718;2024-03-23T11:53:20;13.50;99.90
25504;DHT22;13410;52.114;5.718;2024-03-23T11:55:52;13.70;99.90
25504;DHT22;13410;52.114;5.718;2024-03-23T11:58:19;13.70;99.90
25504;DHT22;13410;52.114;5.718;2024-03-23T12:00:58;13.60;99.90
25504;DHT22;13410;52.114;5.718;2024-03-23T12:03:24;13.60;99.90
25504;DHT22;13410;52.114;5.718;2024-03-23T12:05:55;13.90;99.90
25504;DHT22;13410;52.114;5.718;2024-03-23T12:08:31;13.70;99.90
25504;DHT22;13410;52.114;5.718;2024-03-23T12:11:12;13.50;99.90
25504;DHT22;13410;52.114;5.718;2024-03-23T12:13:39;13.90;99.90
25504;DHT22;13410;52.114;5.718;2024-03-23T12:16:27;14.00;99.90
25504;DHT22;13410;52.114;5.718;2024-03-23T12:18:53;14.10;99.90
25504;DHT22;13410;52.114;5.718;2024-03-23T12:21:18;14.10;99.90
25504;DHT22;13410;52.114;5.718;2024-03-23T12:23:44;14.00;99.90
25504;DHT22;13410;52.114;5.718;2024-03-23T12:26:12;14.10;99.90
25504;DHT22;13410;52.114;5.718;2024-03-23T12:28:38;14.50;99.90
25504;DHT22;13410;52.114;5.718;2024-03-23T12:31:05;14.50;99.90
25504;DHT22;13410;52.114;5.718;2024-03-23T12:33:31;14.50;99.90
25504;DHT22;13410;52.114;5.718;2024-03-23T12:35:57;14.70;99.90
25504;DHT22;13410;52.114;5.718;2024-03-23T12:38:23;14.70;99.90
25504;DHT22;13410;52.114;5.718;2024-03-23T12:40:50;14.60;99.90
25504;DHT22;13410;52.114;5.718;2024-03-23T12:43:20;14.00;99.90
25504;DHT22;13410;52.114;5.718;2024-03-23T12:45:47;13.80;99.90
25504;DHT22;13410;52.114;5.718;2024-03-23T12:48:13;13.70;99.90
25504;DHT22;13410;52.114;5.718;2024-03-23T12:50:39;13.40;99.90
25504;DHT22;13410;52.114;5.718;2024-03-23T12:53:06;13.50;99.90
25504;DHT22;13410;52.114;5.718;2024-03-23T12:55:31;13.50;99.90
25504;DHT22;13410;52.114;5.718;2024-03-23T12:57:57;13.70;99.90
25504;DHT22;13410;52.114;5.718;2024-03-23T13:00:22;13.90;99.90
25504;DHT22;13410;52.114;5.718;2024-03-23T13:02:48;14.00;99.90
25504;DHT22;13410;52.114;5.718;2024-03-23T13:05:14;14.40;99.90
25504;DHT22;13410;52.114;5.718;2024-03-23T13:07:40;14.70;99.90
25504;DHT22;13410;52.114;5.718;2024-03-23T13:10:06;15.10;99.90
25504;DHT22;13410;52.114;5.718;2024-03-23T13:12:32;15.10;99.90
25504;DHT22;13410;52.114;5.718;2024-03-23T13:14:59;15.20;99.90
25504;DHT22;13410;52.114;5.718;2024-03-23T13:17:25;15.50;99.90
25504;DHT22;13410;52.114;5.718;2024-03-23T13:19:52;15.40;99.90
25504;DHT22;13410;52.114;5.718;2024-03-23T13:22:18;15.50;99.90
25504;DHT22;13410;52.114;5.718;2024-03-23T13:24:44;15.30;99.90
25504;DHT22;13410;52.114;5.718;2024-03-23T13:27:10;15.10;99.90
25504;DHT22;13410;52.114;5.718;2024-03-23T13:29:37;15.10;99.90
25504;DHT22;13410;52.114;5.718;2024-03-23T13:32:07;15.20;99.90
25504;DHT22;13410;52.114;5.718;2024-03-23T13:34:33;15.40;99.90
25504;DHT22;13410;52.114;5.718;2024-03-23T13:37:00;15.50;99.90
25504;DHT22;13410;52.114;5.718;2024-03-23T13:39:28;15.20;99.90
25504;DHT22;13410;52.114;5.718;2024-03-23T13:41:54;15.10;99.90
25504;DHT22;13410;52.114;5.718;2024-03-23T13:44:21;14.80;99.90
25504;DHT22;13410;52.114;5.718;2024-03-23T13:46:47;14.20;99.90
25504;DHT22;13410;52.114;5.718;2024-03-23T13:49:25;13.70;99.90
25504;DHT22;13410;52.114;5.718;2024-03-23T13:51:55;13.10;99.90
25504;DHT22;13410;52.114;5.718;2024-03-23T13:54:26;12.90;99.90
25504;DHT22;13410;52.114;5.718;2024-03-23T13:56:54;12.90;99.90
25504;DHT22;13410;52.114;5.718;2024-03-23T13:59:20;12.80;99.90
25504;DHT22;13410;52.114;5.718;2024-03-23T14:01:48;12.90;99.90
25504;DHT22;13410;52.114;5.718;2024-03-23T14:04:16;13.40;99.90
25504;DHT22;13410;52.114;5.718;2024-03-23T14:06:48;13.80;99.90
25504;DHT22;13410;52.114;5.718;2024-03-23T14:09:14;14.00;99.90
25504;DHT22;13410;52.114;5.718;2024-03-23T14:11:46;14.10;99.90
25504;DHT22;13410;52.114;5.718;2024-03-23T14:14:13;14.10;99.90
25504;DHT22;13410;52.114;5.718;2024-03-23T14:16:42;14.00;99.90
25504;DHT22;13410;52.114;5.718;2024-03-23T14:19:08;13.90;99.90
25504;DHT22;13410;52.114;5.718;2024-03-23T14:21:34;13.80;99.90
25504;DHT22;13410;52.114;5.718;2024-03-23T14:24:03;13.80;99.90
25504;DHT22;13410;52.114;5.718;2024-03-23T14:26:29;14.00;99.90
25504;DHT22;13410;52.114;5.718;2024-03-23T14:28:55;14.20;99.90
25504;DHT22;13410;52.114;5.718;2024-03-23T14:31:21;14.30;99.90
25504;DHT22;13410;52.114;5.718;2024-03-23T14:33:47;14.10;99.90
25504;DHT22;13410;52.114;5.718;2024-03-23T14:36:15;14.20;99.90
25504;DHT22;13410;52.114;5.718;2024-03-23T14:38:47;14.10;99.90
25504;DHT22;13410;52.114;5.718;2024-03-23T14:41:12;14.30;99.90
25504;DHT22;13410;52.114;5.718;2024-03-23T14:43:38;14.30;99.90
25504;DHT22;13410;52.114;5.718;2024-03-23T14:46:14;14.20;99.90
25504;DHT22;13410;52.114;5.718;2024-03-23T14:48:41;14.10;99.90
25504;DHT22;13410;52.114;5.718;2024-03-23T14:51:08;13.80;99.90
25504;DHT22;13410;52.114;5.718;2024-03-23T14:53:37;13.50;99.90
25504;DHT22;13410;52.114;5.718;2024-03-23T14:56:06;13.30;99.90
25504;DHT22;13410;52.114;5.718;2024-03-23T14:58:31;13.40;99.90
25504;DHT22;13410;52.114;5.718;2024-03-23T15:01:01;13.50;99.90
25504;DHT22;13410;52.114;5.718;2024-03-23T15:03:27;13.60;99.90
25504;DHT22;13410;52.114;5.718;2024-03-23T15:05:54;13.60;99.90
25504;DHT22;13410;52.114;5.718;2024-03-23T15:08:21;13.60;99.90
25504;DHT22;13410;52.114;5.718;2024-03-23T15:10:47;13.70;99.90
25504;DHT22;13410;52.114;5.718;2024-03-23T15:13:14;13.80;99.90
25504;DHT22;13410;52.114;5.718;2024-03-23T15:15:44;13.80;99.90
25504;DHT22;13410;52.114;5.718;2024-03-23T15:18:16;13.90;99.90
25504;DHT22;13410;52.114;5.718;2024-03-23T15:20:54;13.80;99.90
25504;DHT22;13410;52.114;5.718;2024-03-23T15:23:20;13.90;99.90
25504;DHT22;13410;52.114;5.718;2024-03-23T15:25:54;13.80;99.90
25504;DHT22;13410;52.114;5.718;2024-03-23T15:28:21;13.40;99.90
25504;DHT22;13410;52.114;5.718;2024-03-23T15:30:46;13.20;99.90
25504;DHT22;13410;52.114;5.718;2024-03-23T15:33:12;13.30;99.90
25504;DHT22;13410;52.114;5.718;2024-03-23T15:35:38;13.50;99.90
25504;DHT22;13410;52.114;5.718;2024-03-23T15:38:03;13.60;99.90
25504;DHT22;13410;52.114;5.718;2024-03-23T15:40:29;13.60;99.90
25504;DHT22;13410;52.114;5.718;2024-03-23T15:42:54;13.60;99.90
25504;DHT22;13410;52.114;5.718;2024-03-23T15:45:20;13.80;99.90
25504;DHT22;13410;52.114;5.718;2024-03-23T15:47:46;13.80;99.90
25504;DHT22;13410;52.114;5.718;2024-03-23T15:50:12;13.90;99.90
25504;DHT22;13410;52.114;5.718;2024-03-23T15:52:37;13.90;99.90
25504;DHT22;13410;52.114;5.718;2024-03-23T15:55:03;13.90;99.90
25504;DHT22;13410;52.114;5.718;2024-03-23T15:57:35;14.00;99.90
25504;DHT22;13410;52.114;5.718;2024-03-23T16:00:03;13.90;99.90
25504;DHT22;13410;52.114;5.718;2024-03-23T16:02:29;13.80;99.90
25504;DHT22;13410;52.114;5.718;2024-03-23T16:04:56;13.80;99.90
25504;DHT22;13410;52.114;5.718;2024-03-23T16:07:23;13.80;99.90
25504;DHT22;13410;52.114;5.718;2024-03-23T16:09:50;13.60;99.90
25504;DHT22;13410;52.114;5.718;2024-03-23T16:12:15;13.40;99.90
25504;DHT22;13410;52.114;5.718;2024-03-23T16:14:42;13.50;99.90
25504;DHT22;13410;52.114;5.718;2024-03-23T16:17:09;13.30;99.90
25504;DHT22;13410;52.114;5.718;2024-03-23T16:19:35;13.20;99.90
25504;DHT22;13410;52.114;5.718;2024-03-23T16:22:00;12.90;99.90
25504;DHT22;13410;52.114;5.718;2024-03-23T16:24:26;12.90;99.90
25504;DHT22;13410;52.114;5.718;2024-03-23T16:26:53;13.20;99.90
25504;DHT22;13410;52.114;5.718;2024-03-23T16:29:19;13.40;99.90